aviador You're here:

KBIS Decoded Metar

BISMARCK in ND, USA
Report Time2018-07-20 17:52:00
UTC Time2018-07-20 18:38:40
Flight Rules vfr VFR
Wind360° at 08 kt
W.Decomp.*RWY 03: 6.4 kt HW 4.8 kt LCW
RWY 31: 5.9 kt HW 5.5 kt RCW
Visibility9999 m
Phenomena:N/A
Clouds:Broken 043 Hf
Expected CloudBase > 4,000 ft AGL from Temp-Dew spread
Ceiling4,300 ft
Temp24°C (ISA +12)
Dew Point14°C (54% RH)
AAT22.4°C
QNH1017 hPa
Density Alt3,163 ft
Elevation1,657 ft
Report Wrong Elevation
Raw Report
KBIS 201752Z 36008KT 10SM BKN043 24/14 A3004 RMK AO2 SLP165
T02390139 10250 20172 53004=

Extra information for KBIS:More info

Metar Taf Metar & Taf Last 4 Metars F.Rules Stats Wind Profile Meteogram Temp Stats Airport Information Weather charts Add Link Nearby VenuesMetar ALERT Operation Metar Decoded Social comments

AIRNAV info for KBIS